Time;durP1;ratioP1;P1;durP2;ratioP2;P2;SDS_P1;SDS_P2;PMS_P1;PMS_P2;Temp;Humidity;BMP_temperature;BMP_pressure;BME280_temperature;BME280_humidity;BME280_pressure;Samples;Min_cycle;Max_cycle;Signal;HPM_P1;HPM_P2
2023/03/24 00:01:50;;;;;;;;;;;11.20;99.90;;;;;;5114331;28;20018;-78
2023/03/24 00:04:15;;;;;;;;;;;11.20;99.90;;;;;;5104519;27;19985;-77
2023/03/24 00:06:42;;;;;;;;;;;11.20;99.90;;;;;;5109422;28;19994;-78
2023/03/24 00:09:08;;;;;;;;;;;11.20;99.90;;;;;;5121595;28;19924;-78
2023/03/24 00:11:34;;;;;;;;;;;11.20;99.90;;;;;;5084715;28;19980;-76
2023/03/24 00:14:01;;;;;;;;;;;11.20;99.90;;;;;;5095470;27;19930;-77
2023/03/24 00:16:27;;;;;;;;;;;11.20;99.90;;;;;;5113089;27;19923;-77
2023/03/24 00:18:53;;;;;;;;;;;11.20;99.90;;;;;;5118838;27;19931;-78
2023/03/24 00:21:20;;;;;;;;;;;11.20;99.90;;;;;;5093599;28;19932;-77
2023/03/24 00:23:48;;;;;;;;;;;11.20;99.90;;;;;;5107654;27;19987;-77
2023/03/24 00:26:14;;;;;;;;;;;11.20;99.90;;;;;;5108344;28;19983;-76
2023/03/24 00:28:41;;;;;;;;;;;11.10;99.90;;;;;;5099599;27;19924;-77
2023/03/24 00:31:07;;;;;;;;;;;11.10;99.90;;;;;;5113641;28;19931;-77
2023/03/24 00:33:34;;;;;;;;;;;11.10;99.90;;;;;;5098835;28;19924;-76
2023/03/24 00:36:00;;;;;;;;;;;11.10;99.90;;;;;;5119084;28;19931;-77
2023/03/24 00:38:26;;;;;;;;;;;11.10;99.90;;;;;;5123770;27;19927;-77
2023/03/24 00:40:52;;;;;;;;;;;11.10;99.90;;;;;;5103589;28;19990;-78
2023/03/24 00:43:18;;;;;;;;;;;11.10;99.90;;;;;;5099294;27;20446;-78
2023/03/24 00:45:47;;;;;;;;;;;11.20;99.90;;;;;;5100343;28;19955;-78
2023/03/24 00:48:13;;;;;;;;;;;11.10;99.90;;;;;;5084546;28;19924;-76
2023/03/24 00:50:43;;;;;;;;;;;11.10;99.90;;;;;;5115073;28;19934;-76
2023/03/24 00:53:09;;;;;;;;;;;11.20;99.90;;;;;;5101995;28;19982;-76
2023/03/24 00:55:36;;;;;;;;;;;11.10;99.90;;;;;;5107152;28;19928;-76
2023/03/24 00:58:03;;;;;;;;;;;11.10;99.90;;;;;;5101359;28;19928;-75
2023/03/24 01:00:28;;;;;;;;;;;11.20;99.90;;;;;;5101850;28;19981;-75
2023/03/24 01:02:55;;;;;;;;;;;11.10;99.90;;;;;;5084526;28;19927;-74
2023/03/24 01:05:26;;;;;;;;;;;11.20;99.90;;;;;;5103202;28;20386;-75
2023/03/24 01:07:55;;;;;;;;;;;11.10;99.90;;;;;;5120338;28;19924;-75
2023/03/24 01:10:25;;;;;;;;;;;11.20;99.90;;;;;;5094746;28;19928;-75
2023/03/24 01:12:51;;;;;;;;;;;11.20;99.90;;;;;;5113782;28;19935;-75
2023/03/24 01:15:18;;;;;;;;;;;11.20;99.90;;;;;;5102244;28;19924;-75
2023/03/24 01:17:45;;;;;;;;;;;11.20;99.90;;;;;;5102802;28;20433;-75
2023/03/24 01:20:11;;;;;;;;;;;11.20;99.90;;;;;;5129826;27;20022;-74
2023/03/24 01:22:38;;;;;;;;;;;11.20;99.90;;;;;;5100841;28;19970;-75
2023/03/24 01:25:04;;;;;;;;;;;11.20;99.90;;;;;;5099882;27;19963;-75
2023/03/24 01:27:30;;;;;;;;;;;11.20;99.90;;;;;;5119334;28;19935;-73
2023/03/24 01:30:00;;;;;;;;;;;11.20;99.90;;;;;;5102928;28;19924;-75
2023/03/24 01:32:26;;;;;;;;;;;11.20;99.90;;;;;;5113561;28;19924;-76
2023/03/24 01:34:52;;;;;;;;;;;11.20;99.90;;;;;;5112084;27;19924;-75
2023/03/24 01:37:18;;;;;;;;;;;11.20;99.90;;;;;;5106163;28;19931;-76
2023/03/24 01:39:43;;;;;;;;;;;11.20;99.90;;;;;;5091694;28;19931;-76
2023/03/24 01:42:20;;;;;;;;;;;11.20;99.90;;;;;;5128484;27;19924;-77
2023/03/24 01:44:46;;;;;;;;;;;11.20;99.90;;;;;;5098845;28;19975;-77
2023/03/24 01:47:12;;;;;;;;;;;11.20;99.90;;;;;;5080619;28;19923;-77
2023/03/24 01:49:59;;;;;;;;;;;11.20;99.90;;;;;;5098946;27;19923;-78
2023/03/24 01:52:34;;;;;;;;;;;11.20;99.90;;;;;;5091301;28;19943;-77
2023/03/24 01:55:01;;;;;;;;;;;11.20;99.90;;;;;;5086799;28;19924;-77
2023/03/24 01:57:41;;;;;;;;;;;11.30;99.90;;;;;;5091774;28;19926;-77
2023/03/24 02:00:12;;;;;;;;;;;11.30;99.90;;;;;;5121342;27;19924;-78
2023/03/24 02:02:41;;;;;;;;;;;11.30;99.90;;;;;;5087418;28;19923;-78
2023/03/24 02:05:07;;;;;;;;;;;11.30;99.90;;;;;;5106422;28;20298;-78
2023/03/24 02:07:33;;;;;;;;;;;11.30;99.90;;;;;;5100255;28;19924;-78
2023/03/24 02:10:00;;;;;;;;;;;11.30;99.90;;;;;;5112889;28;20018;-78
2023/03/24 02:12:26;;;;;;;;;;;11.40;99.90;;;;;;5110475;28;19923;-76
2023/03/24 02:14:52;;;;;;;;;;;11.40;99.90;;;;;;5099244;28;20321;-76
2023/03/24 02:17:17;;;;;;;;;;;11.40;99.90;;;;;;5093000;28;19931;-76
2023/03/24 02:19:46;;;;;;;;;;;11.40;99.90;;;;;;5093927;28;19932;-76
2023/03/24 02:22:27;;;;;;;;;;;11.40;99.90;;;;;;5100253;28;19928;-76
2023/03/24 02:25:12;;;;;;;;;;;11.40;99.90;;;;;;5088197;28;19924;-78
2023/03/24 02:27:41;;;;;;;;;;;11.50;99.90;;;;;;5091317;28;19967;-77
2023/03/24 02:30:09;;;;;;;;;;;11.50;99.90;;;;;;5105512;28;19932;-77
2023/03/24 02:32:54;;;;;;;;;;;11.50;99.90;;;;;;5108139;28;19930;-76
2023/03/24 02:35:22;;;;;;;;;;;11.50;99.90;;;;;;5118419;28;19923;-76
2023/03/24 02:38:00;;;;;;;;;;;11.50;99.90;;;;;;5106766;28;19979;-76
2023/03/24 02:40:45;;;;;;;;;;;11.50;99.90;;;;;;5104582;28;19932;-77
2023/03/24 02:43:17;;;;;;;;;;;11.50;99.90;;;;;;5128562;28;19928;-76
2023/03/24 02:45:45;;;;;;;;;;;11.50;99.90;;;;;;5115208;28;19931;-76
2023/03/24 02:48:20;;;;;;;;;;;11.50;99.90;;;;;;5096629;28;19934;-76
2023/03/24 02:50:53;;;;;;;;;;;11.60;99.90;;;;;;5108194;28;19985;-77
2023/03/24 02:53:21;;;;;;;;;;;11.60;99.90;;;;;;5111499;28;19927;-76
2023/03/24 02:55:53;;;;;;;;;;;11.60;99.90;;;;;;5106462;28;20001;-77
2023/03/24 02:58:27;;;;;;;;;;;11.60;99.90;;;;;;5115844;28;19932;-77
2023/03/24 03:00:58;;;;;;;;;;;11.60;99.90;;;;;;5104563;28;19988;-77
2023/03/24 03:03:30;;;;;;;;;;;11.60;99.90;;;;;;5080479;28;19925;-77
2023/03/24 03:05:58;;;;;;;;;;;11.60;99.90;;;;;;5080456;28;19924;-78
2023/03/24 03:08:26;;;;;;;;;;;11.60;99.90;;;;;;5088960;28;19950;-78
2023/03/24 03:10:52;;;;;;;;;;;11.60;99.90;;;;;;5096774;28;19946;-79
2023/03/24 03:13:33;;;;;;;;;;;11.60;99.90;;;;;;5084598;28;20393;-79
2023/03/24 03:16:02;;;;;;;;;;;11.60;99.90;;;;;;5081282;28;19932;-79
2023/03/24 03:18:32;;;;;;;;;;;11.60;99.90;;;;;;5103130;28;19960;-79
2023/03/24 03:21:00;;;;;;;;;;;11.60;99.90;;;;;;5099960;28;19924;-78
2023/03/24 03:23:34;;;;;;;;;;;11.60;99.90;;;;;;5085413;28;19940;-78
2023/03/24 03:26:03;;;;;;;;;;;11.60;99.90;;;;;;5098287;28;19924;-77
2023/03/24 03:28:29;;;;;;;;;;;11.60;99.90;;;;;;5098345;28;19931;-78
2023/03/24 03:30:58;;;;;;;;;;;11.60;99.90;;;;;;5107126;28;20340;-77
2023/03/24 03:33:25;;;;;;;;;;;11.60;99.90;;;;;;5101465;28;19934;-76
2023/03/24 03:35:53;;;;;;;;;;;11.60;99.90;;;;;;5099636;28;19924;-76
2023/03/24 03:38:30;;;;;;;;;;;11.60;99.90;;;;;;5086308;28;20007;-77
2023/03/24 03:40:58;;;;;;;;;;;11.60;99.90;;;;;;5094683;28;19928;-76
2023/03/24 03:43:24;;;;;;;;;;;11.70;99.90;;;;;;5091504;28;19928;-79
2023/03/24 03:45:50;;;;;;;;;;;11.70;99.90;;;;;;5083654;28;19974;-79
2023/03/24 03:48:16;;;;;;;;;;;11.70;99.90;;;;;;5099044;28;19935;-80
2023/03/24 03:50:41;;;;;;;;;;;11.70;99.90;;;;;;5090840;28;19977;-80
2023/03/24 03:53:08;;;;;;;;;;;11.60;99.90;;;;;;5082191;28;19928;-80
2023/03/24 03:55:34;;;;;;;;;;;11.60;99.90;;;;;;5077547;28;19924;-81
2023/03/24 03:58:01;;;;;;;;;;;11.50;99.90;;;;;;5097449;28;19924;-81
2023/03/24 04:00:29;;;;;;;;;;;11.40;99.90;;;;;;5092417;28;19961;-81
2023/03/24 04:03:00;;;;;;;;;;;11.30;99.90;;;;;;5101425;28;20424;-82
2023/03/24 04:05:32;;;;;;;;;;;11.20;99.90;;;;;;5098131;28;19924;-82
2023/03/24 04:08:04;;;;;;;;;;;11.10;99.90;;;;;;5098905;28;19958;-81
2023/03/24 04:10:54;;;;;;;;;;;11.10;99.90;;;;;;5095586;28;20002;-81
2023/03/24 04:13:49;;;;;;;;;;;11.00;99.90;;;;;;5088709;28;19932;-80
2023/03/24 04:16:33;;;;;;;;;;;10.90;99.90;;;;;;5088438;27;19930;-81
2023/03/24 04:19:05;;;;;;;;;;;10.90;99.90;;;;;;5087882;28;20348;-81
2023/03/24 04:21:37;;;;;;;;;;;10.80;99.90;;;;;;5087424;28;19938;-81
2023/03/24 04:24:09;;;;;;;;;;;10.70;99.90;;;;;;5099271;28;20028;-81
2023/03/24 04:26:53;;;;;;;;;;;10.70;99.90;;;;;;5106115;28;20364;-81
2023/03/24 04:29:28;;;;;;;;;;;10.60;99.90;;;;;;5093969;28;19924;-81
2023/03/24 04:32:06;;;;;;;;;;;10.60;99.90;;;;;;5088772;28;20121;-81
2023/03/24 04:34:34;;;;;;;;;;;10.50;99.90;;;;;;5092544;28;19928;-82
2023/03/24 04:37:07;;;;;;;;;;;10.50;99.90;;;;;;5090996;28;19929;-82
2023/03/24 04:39:37;;;;;;;;;;;10.50;99.90;;;;;;5091447;28;19924;-82
2023/03/24 04:42:09;;;;;;;;;;;10.40;99.90;;;;;;5099405;28;19993;-82
2023/03/24 04:44:34;;;;;;;;;;;10.40;99.90;;;;;;5095457;28;19959;-82
2023/03/24 04:47:01;;;;;;;;;;;10.50;99.90;;;;;;5089310;28;19929;-83
2023/03/24 04:49:27;;;;;;;;;;;10.40;99.90;;;;;;5073566;28;19924;-83
2023/03/24 04:51:53;;;;;;;;;;;10.40;99.90;;;;;;5089491;28;19924;-84
2023/03/24 04:54:20;;;;;;;;;;;10.40;99.90;;;;;;5095779;28;19931;-84
2023/03/24 04:56:50;;;;;;;;;;;10.40;99.90;;;;;;5095831;28;19925;-83
2023/03/24 04:59:16;;;;;;;;;;;10.40;99.90;;;;;;5092276;28;19924;-83
2023/03/24 05:01:48;;;;;;;;;;;10.30;99.90;;;;;;5096030;28;19952;-83
2023/03/24 05:04:18;;;;;;;;;;;10.30;99.90;;;;;;5100023;28;19999;-83
2023/03/24 05:06:50;;;;;;;;;;;10.30;99.90;;;;;;5099732;28;19989;-84
2023/03/24 05:09:20;;;;;;;;;;;10.30;99.90;;;;;;5103040;28;19924;-84
2023/03/24 05:11:46;;;;;;;;;;;10.20;99.90;;;;;;5085231;28;19928;-83
2023/03/24 05:14:11;;;;;;;;;;;10.20;99.90;;;;;;5098096;28;19934;-84
2023/03/24 05:16:37;;;;;;;;;;;10.10;99.90;;;;;;5101382;28;19924;-83
2023/03/24 05:19:03;;;;;;;;;;;10.10;99.90;;;;;;5093688;28;19928;-83
2023/03/24 05:21:29;;;;;;;;;;;10.00;99.90;;;;;;5091569;28;19931;-83
2023/03/24 05:23:55;;;;;;;;;;;10.00;99.90;;;;;;5117586;27;19928;-85
2023/03/24 05:26:20;;;;;;;;;;;9.90;99.90;;;;;;5106594;28;19946;-83
2023/03/24 05:28:46;;;;;;;;;;;9.80;99.90;;;;;;5100088;28;19979;-82
2023/03/24 05:31:12;;;;;;;;;;;9.70;99.90;;;;;;5098079;28;19928;-83
2023/03/24 05:33:37;;;;;;;;;;;9.70;99.90;;;;;;5089119;28;19955;-82
2023/03/24 05:36:03;;;;;;;;;;;9.60;99.90;;;;;;5101117;28;19928;-82
2023/03/24 05:38:29;;;;;;;;;;;9.60;99.90;;;;;;5086291;28;19931;-83
2023/03/24 05:40:55;;;;;;;;;;;9.50;99.90;;;;;;5114487;28;19984;-83
2023/03/24 05:43:20;;;;;;;;;;;9.40;99.90;;;;;;5087644;28;19931;-86
2023/03/24 05:45:46;;;;;;;;;;;9.40;99.90;;;;;;5105778;28;19928;-84
2023/03/24 05:48:11;;;;;;;;;;;9.40;99.90;;;;;;5103536;28;19985;-84
2023/03/24 05:50:37;;;;;;;;;;;9.40;99.90;;;;;;5098250;28;19983;-84
2023/03/24 05:53:03;;;;;;;;;;;9.30;99.90;;;;;;5092251;28;19925;-83
2023/03/24 05:55:29;;;;;;;;;;;9.30;99.90;;;;;;5124962;27;19924;-83
2023/03/24 05:57:55;;;;;;;;;;;9.40;99.90;;;;;;5099026;28;19932;-83
2023/03/24 06:00:22;;;;;;;;;;;9.40;99.90;;;;;;5097299;28;19924;-83
2023/03/24 06:02:48;;;;;;;;;;;9.30;99.90;;;;;;5097126;28;19924;-83
2023/03/24 06:05:13;;;;;;;;;;;9.30;99.90;;;;;;5097931;28;19946;-82
2023/03/24 06:07:41;;;;;;;;;;;9.30;99.90;;;;;;5101068;28;19931;-83
2023/03/24 06:10:10;;;;;;;;;;;9.40;99.90;;;;;;5101165;27;19931;-84
2023/03/24 06:12:36;;;;;;;;;;;9.40;99.90;;;;;;5082286;28;19971;-83
2023/03/24 06:15:02;;;;;;;;;;;9.50;99.90;;;;;;5092732;28;20353;-83
2023/03/24 06:17:29;;;;;;;;;;;9.50;99.90;;;;;;5124989;28;19969;-84
2023/03/24 06:20:02;;;;;;;;;;;9.60;99.90;;;;;;5096376;28;19932;-85
2023/03/24 06:22:29;;;;;;;;;;;9.60;99.90;;;;;;5084681;28;20274;-83
2023/03/24 06:24:55;;;;;;;;;;;9.70;99.90;;;;;;5093094;28;19928;-84
2023/03/24 06:27:24;;;;;;;;;;;9.70;99.90;;;;;;5096203;28;20280;-83
2023/03/24 06:29:50;;;;;;;;;;;9.70;99.90;;;;;;5101489;28;19973;-86
2023/03/24 06:32:19;;;;;;;;;;;9.80;99.90;;;;;;5098033;28;19988;-85
2023/03/24 06:34:44;;;;;;;;;;;9.90;99.90;;;;;;5093146;28;19929;-86
2023/03/24 06:37:10;;;;;;;;;;;9.90;99.90;;;;;;5093059;28;19945;-85
2023/03/24 06:39:36;;;;;;;;;;;9.90;99.90;;;;;;5102676;28;19928;-84
2023/03/24 06:42:02;;;;;;;;;;;9.90;99.90;;;;;;5095976;28;19930;-85
2023/03/24 06:44:28;;;;;;;;;;;9.90;99.90;;;;;;5089559;28;19979;-84
2023/03/24 06:46:53;;;;;;;;;;;10.00;99.90;;;;;;5102951;28;19939;-85
2023/03/24 06:49:19;;;;;;;;;;;10.10;99.90;;;;;;5091938;28;20466;-83
2023/03/24 06:51:45;;;;;;;;;;;10.10;99.90;;;;;;5096498;28;19932;-85
2023/03/24 06:54:10;;;;;;;;;;;10.20;99.90;;;;;;5101722;28;19924;-84
2023/03/24 06:56:36;;;;;;;;;;;10.20;99.90;;;;;;5101104;28;19928;-84
2023/03/24 06:59:02;;;;;;;;;;;10.20;99.90;;;;;;5110679;28;20011;-84
2023/03/24 07:01:28;;;;;;;;;;;10.30;99.90;;;;;;5091167;28;19925;-85
2023/03/24 07:03:54;;;;;;;;;;;10.30;99.90;;;;;;5101647;28;20446;-85
2023/03/24 07:06:21;;;;;;;;;;;10.30;99.90;;;;;;5102235;28;19983;-85
2023/03/24 07:08:47;;;;;;;;;;;10.30;99.90;;;;;;5088032;28;19931;-84
2023/03/24 07:11:13;;;;;;;;;;;10.40;99.90;;;;;;5096114;28;19924;-85
2023/03/24 07:13:39;;;;;;;;;;;10.40;99.90;;;;;;5094930;28;19969;-84
2023/03/24 07:16:04;;;;;;;;;;;10.40;99.90;;;;;;5102016;28;19932;-84
2023/03/24 07:18:30;;;;;;;;;;;10.50;99.90;;;;;;5099709;28;19928;-85
2023/03/24 07:20:56;;;;;;;;;;;10.50;99.90;;;;;;5101089;28;19924;-85
2023/03/24 07:23:21;;;;;;;;;;;10.60;99.90;;;;;;5089715;28;19990;-84
2023/03/24 07:25:47;;;;;;;;;;;10.50;99.90;;;;;;5083339;28;19987;-84
2023/03/24 07:28:12;;;;;;;;;;;10.60;99.90;;;;;;5096155;28;19935;-84
2023/03/24 07:30:38;;;;;;;;;;;10.60;99.90;;;;;;5088026;28;19972;-85
2023/03/24 07:33:05;;;;;;;;;;;10.70;99.90;;;;;;5090684;28;20406;-84
2023/03/24 07:35:30;;;;;;;;;;;10.70;99.90;;;;;;5097810;28;19928;-85
2023/03/24 07:37:56;;;;;;;;;;;10.70;99.90;;;;;;5088787;28;19995;-85
2023/03/24 07:40:22;;;;;;;;;;;10.60;99.90;;;;;;5091866;28;19947;-85
2023/03/24 07:42:47;;;;;;;;;;;10.50;99.90;;;;;;5088260;28;19924;-85
2023/03/24 07:45:13;;;;;;;;;;;10.60;99.90;;;;;;5098861;28;20019;-85
2023/03/24 07:47:42;;;;;;;;;;;10.60;99.90;;;;;;5094307;28;19924;-85
2023/03/24 07:50:09;;;;;;;;;;;10.70;99.90;;;;;;5068118;28;19935;-85
2023/03/24 07:52:35;;;;;;;;;;;10.70;99.90;;;;;;5067696;28;20015;-85
2023/03/24 07:55:01;;;;;;;;;;;10.80;99.90;;;;;;5073300;28;19924;-86
2023/03/24 07:57:26;;;;;;;;;;;10.80;99.90;;;;;;5076763;28;20404;-85
2023/03/24 07:59:52;;;;;;;;;;;10.90;99.90;;;;;;5051787;28;19928;-87
2023/03/24 08:02:18;;;;;;;;;;;11.00;99.90;;;;;;5070994;28;20306;-85
2023/03/24 08:04:44;;;;;;;;;;;11.20;99.90;;;;;;5064948;28;20000;-87
2023/03/24 08:07:11;;;;;;;;;;;11.30;99.90;;;;;;5061722;28;19972;-84
2023/03/24 08:09:38;;;;;;;;;;;11.40;99.90;;;;;;5071622;28;19928;-85
2023/03/24 08:12:03;;;;;;;;;;;11.50;99.90;;;;;;5070564;28;19924;-86
2023/03/24 08:14:29;;;;;;;;;;;11.60;99.90;;;;;;5066425;28;19925;-85
2023/03/24 08:16:55;;;;;;;;;;;11.70;99.90;;;;;;5074935;28;19932;-85
2023/03/24 08:19:20;;;;;;;;;;;11.90;99.90;;;;;;5078906;28;19924;-85
2023/03/24 08:21:46;;;;;;;;;;;12.20;99.90;;;;;;5075183;28;20398;-85
2023/03/24 08:24:11;;;;;;;;;;;12.50;99.90;;;;;;5064248;28;20332;-87
2023/03/24 08:26:37;;;;;;;;;;;12.80;99.90;;;;;;5064184;28;19925;-87
2023/03/24 08:29:03;;;;;;;;;;;13.20;99.90;;;;;;5062186;28;19925;-87
2023/03/24 08:31:32;;;;;;;;;;;13.40;99.90;;;;;;5062374;28;20436;-86
2023/03/24 08:33:58;;;;;;;;;;;13.50;99.90;;;;;;5074577;28;19925;-86
2023/03/24 08:36:25;;;;;;;;;;;13.60;99.90;;;;;;5067086;28;19994;-87
2023/03/24 08:38:53;;;;;;;;;;;13.60;99.90;;;;;;5065800;28;19924;-86
2023/03/24 08:41:19;;;;;;;;;;;13.60;99.90;;;;;;5059925;28;19932;-86
2023/03/24 08:43:45;;;;;;;;;;;13.60;99.90;;;;;;5061996;28;20407;-86
2023/03/24 08:46:11;;;;;;;;;;;13.50;99.90;;;;;;5061605;28;19928;-86
2023/03/24 08:48:39;;;;;;;;;;;13.30;99.90;;;;;;5077964;28;19924;-86
2023/03/24 08:51:15;;;;;;;;;;;13.00;99.90;;;;;;5087813;28;19928;-86
2023/03/24 08:53:41;;;;;;;;;;;12.90;99.90;;;;;;5095110;28;19945;-85
2023/03/24 08:56:07;;;;;;;;;;;12.80;99.90;;;;;;5078630;28;19928;-89
2023/03/24 08:58:33;;;;;;;;;;;12.90;99.90;;;;;;5082624;28;19928;-86
2023/03/24 09:00:58;;;;;;;;;;;12.90;99.90;;;;;;5085226;28;19928;-86
2023/03/24 09:03:25;;;;;;;;;;;12.80;99.90;;;;;;5095308;28;20461;-86
2023/03/24 09:05:53;;;;;;;;;;;13.00;99.90;;;;;;5093227;28;19935;-85
2023/03/24 09:08:19;;;;;;;;;;;13.30;99.90;;;;;;5099817;28;20463;-87
2023/03/24 09:10:48;;;;;;;;;;;13.40;99.90;;;;;;5097601;28;19928;-88
2023/03/24 09:13:15;;;;;;;;;;;13.60;99.90;;;;;;5095850;28;20063;-87
2023/03/24 09:15:44;;;;;;;;;;;13.80;99.90;;;;;;5098433;28;19924;-86
2023/03/24 09:18:10;;;;;;;;;;;14.40;99.90;;;;;;5091914;28;19931;-86
2023/03/24 09:20:36;;;;;;;;;;;15.00;99.90;;;;;;5098934;28;20403;-87
2023/03/24 09:23:01;;;;;;;;;;;15.30;99.90;;;;;;5097345;28;19946;-87
2023/03/24 09:25:27;;;;;;;;;;;15.40;99.90;;;;;;5099291;28;19972;-87
2023/03/24 09:27:52;;;;;;;;;;;15.50;99.90;;;;;;5088757;28;19924;-86
2023/03/24 09:30:18;;;;;;;;;;;15.40;99.90;;;;;;5095902;28;19999;-86
2023/03/24 09:32:44;;;;;;;;;;;15.30;99.90;;;;;;5107272;28;20154;-85
2023/03/24 09:35:10;;;;;;;;;;;14.90;99.90;;;;;;5124891;27;19935;-87
2023/03/24 09:37:37;;;;;;;;;;;14.50;99.90;;;;;;5094090;28;20342;-87
2023/03/24 09:40:03;;;;;;;;;;;14.90;99.90;;;;;;5093458;28;19927;-89
2023/03/24 09:42:32;;;;;;;;;;;15.50;99.90;;;;;;5093626;28;19935;-89
2023/03/24 09:45:01;;;;;;;;;;;15.60;99.90;;;;;;5100540;28;19924;-89
2023/03/24 09:47:29;;;;;;;;;;;15.50;99.90;;;;;;5100238;28;20365;-88
2023/03/24 09:49:56;;;;;;;;;;;15.20;99.90;;;;;;5094929;28;20002;-88
2023/03/24 09:52:26;;;;;;;;;;;14.50;99.90;;;;;;5094027;28;19925;-87
2023/03/24 09:55:00;;;;;;;;;;;14.40;99.90;;;;;;5098044;28;19928;-78
2023/03/24 09:57:28;;;;;;;;;;;14.80;99.90;;;;;;5093502;28;19928;-86
2023/03/24 09:59:54;;;;;;;;;;;15.10;99.90;;;;;;5083428;28;19924;-84
2023/03/24 10:02:20;;;;;;;;;;;15.50;99.90;;;;;;5094061;28;19924;-79
2023/03/24 10:04:46;;;;;;;;;;;15.60;99.50;;;;;;5083542;28;19929;-85
2023/03/24 10:07:18;;;;;;;;;;;15.10;98.60;;;;;;5088712;28;19974;-84
2023/03/24 10:09:47;;;;;;;;;;;14.80;99.40;;;;;;5089704;28;19980;-84
2023/03/24 10:12:12;;;;;;;;;;;14.60;99.90;;;;;;5121023;27;19935;-83
2023/03/24 10:14:43;;;;;;;;;;;14.90;99.90;;;;;;5085460;28;19929;-79
2023/03/24 10:17:14;;;;;;;;;;;14.80;99.90;;;;;;5091630;28;20007;-84
2023/03/24 10:19:43;;;;;;;;;;;14.40;99.90;;;;;;5080954;28;19924;-85
2023/03/24 10:22:20;;;;;;;;;;;14.10;99.90;;;;;;5092724;28;20211;-81
2023/03/24 10:25:09;;;;;;;;;;;13.90;99.90;;;;;;5093694;28;19952;-80
2023/03/24 10:27:36;;;;;;;;;;;13.90;99.90;;;;;;5065136;28;19928;-80
2023/03/24 10:30:11;;;;;;;;;;;14.00;99.90;;;;;;5117256;27;19975;-80
2023/03/24 10:32:37;;;;;;;;;;;14.20;99.90;;;;;;5076072;28;19924;-80
2023/03/24 10:35:08;;;;;;;;;;;14.30;99.90;;;;;;5097431;28;19924;-80
2023/03/24 10:37:34;;;;;;;;;;;14.40;99.90;;;;;;5107158;28;20405;-80
2023/03/24 10:40:00;;;;;;;;;;;14.50;99.90;;;;;;5094119;28;19925;-80
2023/03/24 10:42:29;;;;;;;;;;;14.60;99.90;;;;;;5115983;28;19959;-79
2023/03/24 10:44:55;;;;;;;;;;;14.70;99.90;;;;;;5075603;28;19928;-79
2023/03/24 10:47:25;;;;;;;;;;;14.90;99.90;;;;;;5074420;28;19924;-79
2023/03/24 10:49:51;;;;;;;;;;;15.00;98.90;;;;;;5089475;28;19924;-79
2023/03/24 10:52:17;;;;;;;;;;;15.20;99.90;;;;;;5087889;28;19987;-80
2023/03/24 10:54:52;;;;;;;;;;;15.30;97.40;;;;;;5083202;28;19994;-79
2023/03/24 10:57:18;;;;;;;;;;;15.40;98.20;;;;;;5078314;28;19932;-79
2023/03/24 10:59:46;;;;;;;;;;;15.50;95.70;;;;;;5099149;28;19931;-79
2023/03/24 11:02:20;;;;;;;;;;;15.60;95.60;;;;;;5080591;28;20398;-80
2023/03/24 11:05:01;;;;;;;;;;;15.80;96.20;;;;;;5099640;28;20285;-79
2023/03/24 11:07:34;;;;;;;;;;;15.90;97.10;;;;;;5097857;28;19928;-79
2023/03/24 11:10:07;;;;;;;;;;;15.90;96.90;;;;;;5091022;28;19988;-79
2023/03/24 11:12:34;;;;;;;;;;;16.10;99.40;;;;;;5080313;28;20279;-79
2023/03/24 11:15:02;;;;;;;;;;;16.10;96.40;;;;;;5118402;27;19924;-79
2023/03/24 11:17:27;;;;;;;;;;;15.90;97.40;;;;;;5104229;28;19979;-80
2023/03/24 11:19:54;;;;;;;;;;;15.60;95.90;;;;;;5098070;28;19970;-80
2023/03/24 11:22:20;;;;;;;;;;;15.20;96.90;;;;;;5100612;28;19935;-80
2023/03/24 11:24:48;;;;;;;;;;;15.10;95.50;;;;;;5076739;28;19924;-80
2023/03/24 11:27:15;;;;;;;;;;;15.00;97.10;;;;;;5096531;28;19924;-79
2023/03/24 11:29:41;;;;;;;;;;;14.80;95.50;;;;;;5071778;28;19954;-80
2023/03/24 11:32:24;;;;;;;;;;;14.70;94.60;;;;;;5094884;28;19933;-80
2023/03/24 11:34:55;;;;;;;;;;;14.80;95.90;;;;;;5082769;28;19924;-80
2023/03/24 11:37:22;;;;;;;;;;;15.00;97.10;;;;;;5093807;28;19928;-79
2023/03/24 11:40:06;;;;;;;;;;;15.30;95.80;;;;;;5072470;28;19930;-80
2023/03/24 11:42:32;;;;;;;;;;;15.60;98.60;;;;;;5098225;28;19928;-79
2023/03/24 11:44:57;;;;;;;;;;;15.70;96.40;;;;;;5084236;28;19977;-80
2023/03/24 11:47:30;;;;;;;;;;;16.00;96.00;;;;;;5111688;28;20445;-80
2023/03/24 11:50:00;;;;;;;;;;;16.40;95.60;;;;;;5130208;27;19924;-80
2023/03/24 11:52:28;;;;;;;;;;;16.60;96.70;;;;;;5082280;28;19979;-79
2023/03/24 11:54:54;;;;;;;;;;;16.60;94.90;;;;;;5088032;28;19947;-80
2023/03/24 11:57:25;;;;;;;;;;;16.70;95.00;;;;;;5090282;28;20015;-80
2023/03/24 11:59:56;;;;;;;;;;;16.70;93.50;;;;;;5075994;28;19924;-80
2023/03/24 12:02:25;;;;;;;;;;;16.70;93.40;;;;;;5078262;28;19967;-76
2023/03/24 12:05:03;;;;;;;;;;;16.50;94.50;;;;;;5066670;28;19924;-78
2023/03/24 12:07:52;;;;;;;;;;;16.30;92.50;;;;;;5107593;28;19950;-80
2023/03/24 12:10:28;;;;;;;;;;;16.00;93.90;;;;;;5073400;28;19924;-81
2023/03/24 12:13:09;;;;;;;;;;;15.70;93.30;;;;;;5083056;28;19928;-80
2023/03/24 12:15:51;;;;;;;;;;;15.50;94.20;;;;;;5133256;27;19949;-81
2023/03/24 12:18:36;;;;;;;;;;;15.30;95.30;;;;;;5114535;28;19931;-80
2023/03/24 12:21:11;;;;;;;;;;;15.10;93.70;;;;;;5073723;28;20003;-80
2023/03/24 12:23:57;;;;;;;;;;;14.90;91.30;;;;;;5089971;28;19931;-81
2023/03/24 12:26:27;;;;;;;;;;;14.70;92.00;;;;;;5082269;28;19925;-81
2023/03/24 12:29:11;;;;;;;;;;;14.50;92.20;;;;;;5082017;28;19953;-80
2023/03/24 12:31:44;;;;;;;;;;;14.60;90.90;;;;;;5099258;28;19931;-80
2023/03/24 12:34:36;;;;;;;;;;;14.80;91.40;;;;;;5062515;28;20477;-81
2023/03/24 12:37:15;;;;;;;;;;;15.00;91.50;;;;;;5098151;28;19924;-80
2023/03/24 12:39:47;;;;;;;;;;;15.10;90.40;;;;;;5082449;28;19946;-80
2023/03/24 12:42:14;;;;;;;;;;;15.40;91.60;;;;;;5133175;27;19924;-81
2023/03/24 12:44:46;;;;;;;;;;;15.50;91.30;;;;;;5073065;28;19924;-80
2023/03/24 12:47:24;;;;;;;;;;;15.60;90.10;;;;;;5075253;28;19929;-85
2023/03/24 12:50:09;;;;;;;;;;;15.70;91.10;;;;;;5083043;28;19989;-82
2023/03/24 12:52:37;;;;;;;;;;;15.70;92.00;;;;;;5086631;28;19924;-81
2023/03/24 12:55:06;;;;;;;;;;;15.80;90.70;;;;;;5091125;28;19952;-80
2023/03/24 12:57:37;;;;;;;;;;;15.80;90.00;;;;;;5092681;28;20606;-81
2023/03/24 13:00:06;;;;;;;;;;;15.80;91.20;;;;;;5104296;27;20383;-81
2023/03/24 13:02:37;;;;;;;;;;;15.70;91.90;;;;;;5122025;27;19924;-81
2023/03/24 13:05:13;;;;;;;;;;;15.60;91.10;;;;;;5084171;28;19924;-80
2023/03/24 13:07:42;;;;;;;;;;;15.30;90.60;;;;;;5096411;28;19928;-80
2023/03/24 13:10:14;;;;;;;;;;;15.20;90.90;;;;;;5080912;28;19949;-74
2023/03/24 13:12:40;;;;;;;;;;;15.10;91.60;;;;;;5097477;28;19928;-74
2023/03/24 13:15:13;;;;;;;;;;;15.20;91.60;;;;;;5080416;28;19987;-74
2023/03/24 13:17:38;;;;;;;;;;;15.30;93.70;;;;;;5102967;28;19924;-74
2023/03/24 13:20:08;;;;;;;;;;;15.40;93.00;;;;;;5076273;28;20299;-75
2023/03/24 13:22:36;;;;;;;;;;;15.30;90.30;;;;;;5089270;28;19985;-75
2023/03/24 13:25:04;;;;;;;;;;;15.40;93.70;;;;;;5072523;28;19936;-75
2023/03/24 13:27:36;;;;;;;;;;;15.30;92.00;;;;;;5109513;28;19928;-74
2023/03/24 13:30:11;;;;;;;;;;;15.30;92.00;;;;;;5105166;28;19924;-75
2023/03/24 13:32:51;;;;;;;;;;;15.20;92.20;;;;;;5073677;28;20028;-74
2023/03/24 13:35:29;;;;;;;;;;;15.00;92.20;;;;;;5075049;28;20399;-74
2023/03/24 13:38:15;;;;;;;;;;;14.90;92.80;;;;;;5093210;28;19923;-74
2023/03/24 13:40:42;;;;;;;;;;;15.10;93.20;;;;;;5075845;28;19924;-75
2023/03/24 13:43:12;;;;;;;;;;;15.00;91.80;;;;;;5066617;28;20594;-74
2023/03/24 13:45:42;;;;;;;;;;;14.80;92.10;;;;;;5080799;28;19924;-74
2023/03/24 13:48:08;;;;;;;;;;;14.60;92.50;;;;;;5079677;28;19928;-75
2023/03/24 13:50:37;;;;;;;;;;;14.40;93.70;;;;;;5069012;28;19924;-75
2023/03/24 13:53:11;;;;;;;;;;;14.30;92.90;;;;;;5100748;28;20446;-74
2023/03/24 13:55:38;;;;;;;;;;;14.20;93.30;;;;;;5083118;28;19924;-75
2023/03/24 13:58:18;;;;;;;;;;;14.20;93.70;;;;;;5082565;28;19924;-74
2023/03/24 14:01:10;;;;;;;;;;;14.20;95.10;;;;;;5073750;28;19928;-75
2023/03/24 14:03:38;;;;;;;;;;;14.30;94.60;;;;;;5110464;28;19928;-74
2023/03/24 14:06:05;;;;;;;;;;;14.30;95.00;;;;;;5099099;28;19924;-75
2023/03/24 14:08:50;;;;;;;;;;;14.30;95.00;;;;;;5076823;27;19937;-82
2023/03/24 14:11:32;;;;;;;;;;;14.30;95.30;;;;;;5109329;28;20496;-82
2023/03/24 14:14:05;;;;;;;;;;;14.30;95.80;;;;;;5085749;28;20399;-82
2023/03/24 14:16:40;;;;;;;;;;;14.30;95.10;;;;;;5102381;28;20495;-82
2023/03/24 14:19:17;;;;;;;;;;;14.20;95.60;;;;;;5083670;28;19927;-82
2023/03/24 14:21:43;;;;;;;;;;;14.10;96.90;;;;;;5100100;28;20010;-82
2023/03/24 14:24:16;;;;;;;;;;;14.00;96.90;;;;;;5078196;28;19987;-82
2023/03/24 14:26:42;;;;;;;;;;;14.00;96.90;;;;;;5094260;28;19938;-82
2023/03/24 14:29:28;;;;;;;;;;;14.10;97.50;;;;;;5075206;28;19967;-81
2023/03/24 14:31:59;;;;;;;;;;;14.20;98.00;;;;;;5066924;28;19935;-81